createdAt,value
2022-12-15T00:02:47.661Z,11.93
2022-12-15T00:08:03.365Z,12.25
2022-12-15T00:13:19.125Z,8.98
2022-12-15T00:18:34.750Z,12.65
2022-12-15T00:23:50.514Z,13.35
2022-12-15T00:29:06.403Z,11.10
2022-12-15T00:34:22.262Z,12.00
2022-12-15T00:39:19.868Z,12.75
2022-12-15T00:44:20.609Z,12.45
2022-12-15T00:49:36.538Z,11.30
2022-12-15T00:54:52.460Z,11.35
2022-12-15T01:00:08.171Z,10.52
2022-12-15T01:05:24.356Z,11.65
2022-12-15T01:10:40.178Z,10.60
2022-12-15T01:15:59.490Z,10.52
2022-12-15T01:21:05.943Z,10.77
2022-12-15T01:26:03.829Z,10.63
2022-12-15T01:31:01.153Z,11.45
2022-12-15T01:35:59.816Z,10.73
2022-12-15T01:41:03.002Z,9.65
2022-12-15T01:46:06.263Z,11.32
2022-12-15T01:51:06.459Z,10.13
2022-12-15T01:56:06.247Z,11.00
2022-12-15T02:01:04.238Z,11.88
2022-12-15T02:06:02.317Z,11.70
2022-12-15T02:11:14.468Z,10.60
2022-12-15T02:16:38.844Z,9.27
2022-12-15T02:22:01.643Z,9.27
2022-12-15T02:27:12.782Z,10.68
2022-12-15T02:32:16.841Z,10.25
2022-12-15T02:37:28.596Z,11.43
2022-12-15T02:42:29.054Z,10.98
2022-12-15T02:47:39.141Z,11.07
2022-12-15T02:52:49.824Z,10.10
2022-12-15T02:58:13.432Z,11.25
2022-12-15T03:03:12.673Z,11.23
2022-12-15T03:08:10.370Z,9.80
2022-12-15T03:13:10.584Z,11.73
2022-12-15T03:18:15.953Z,9.98
2022-12-15T03:23:13.261Z,10.45
2022-12-15T03:28:13.807Z,10.05
2022-12-15T03:33:11.067Z,9.40
2022-12-15T03:38:08.628Z,10.50
2022-12-15T03:43:05.862Z,9.10
2022-12-15T03:48:03.092Z,10.57
2022-12-15T03:53:03.410Z,8.90
2022-12-15T03:58:00.976Z,11.20
2022-12-15T04:02:59.023Z,9.88
2022-12-15T04:07:58.389Z,11.07
2022-12-15T04:12:59.990Z,11.00
2022-12-15T04:17:58.537Z,10.10
2022-12-15T04:22:56.495Z,9.82
2022-12-15T04:28:13.088Z,10.73
2022-12-15T04:33:32.743Z,10.23
2022-12-15T04:38:50.330Z,11.15
2022-12-15T04:44:08.372Z,9.55
2022-12-15T04:49:25.831Z,10.18
2022-12-15T04:54:42.699Z,9.60
2022-12-15T04:59:58.949Z,9.75
2022-12-15T05:05:16.860Z,8.75
2022-12-15T05:10:34.786Z,8.02
2022-12-15T05:15:53.165Z,10.93
2022-12-15T05:21:09.511Z,10.23
2022-12-15T05:26:25.310Z,10.63
2022-12-15T05:31:41.140Z,14.82
2022-12-15T05:36:38.522Z,9.38
2022-12-15T05:41:35.707Z,9.68
2022-12-15T05:46:32.966Z,9.57
2022-12-15T05:51:30.474Z,9.35
2022-12-15T05:56:28.779Z,9.85
2022-12-15T06:01:26.859Z,9.40
2022-12-15T06:06:26.332Z,8.90
2022-12-15T06:11:23.580Z,10.13
2022-12-15T06:16:22.575Z,14.80
2022-12-15T06:21:23.889Z,17.65
2022-12-15T06:26:40.288Z,14.23
2022-12-15T06:31:38.748Z,11.90
2022-12-15T06:36:36.992Z,12.48
2022-12-15T06:41:34.282Z,11.40
2022-12-15T06:46:33.157Z,10.35
2022-12-15T06:51:30.895Z,14.52
2022-12-15T06:56:34.060Z,13.13
2022-12-15T07:01:32.156Z,12.90
2022-12-15T07:06:36.571Z,13.40
2022-12-15T07:11:34.321Z,15.07
2022-12-15T07:16:31.654Z,16.75
2022-12-15T07:21:28.992Z,16.35
2022-12-15T07:26:26.940Z,14.82
2022-12-15T07:31:24.536Z,14.18
2022-12-15T07:36:21.937Z,13.80
2022-12-15T07:41:20.092Z,11.90
2022-12-15T07:46:18.208Z,11.07
2022-12-15T07:51:19.321Z,11.85
2022-12-15T07:56:21.056Z,10.90
2022-12-15T08:01:18.653Z,10.93
2022-12-15T08:06:16.491Z,10.43
2022-12-15T08:11:16.638Z,11.18
2022-12-15T08:16:14.263Z,10.50
2022-12-15T08:21:12.017Z,11.15
2022-12-15T08:26:12.664Z,13.05
2022-12-15T08:31:15.413Z,11.57
2022-12-15T08:36:15.139Z,9.00
2022-12-15T08:41:17.252Z,9.80
2022-12-15T08:46:14.813Z,10.07
2022-12-15T08:51:12.242Z,10.57
2022-12-15T08:56:12.704Z,10.45
2022-12-15T09:01:22.958Z,11.57
2022-12-15T09:06:30.021Z,9.68
2022-12-15T09:11:28.639Z,10.18
2022-12-15T09:16:26.704Z,9.85
2022-12-15T09:21:26.971Z,9.85
2022-12-15T09:31:28.847Z,9.85
2022-12-15T09:36:27.459Z,10.38
2022-12-15T09:41:30.563Z,11.13
2022-12-15T09:46:49.800Z,9.73
2022-12-15T09:51:56.235Z,10.35
2022-12-15T09:56:57.050Z,9.82
2022-12-15T10:02:03.368Z,9.63
2022-12-15T10:07:22.786Z,9.93
2022-12-15T10:12:29.972Z,10.77
2022-12-15T10:17:57.172Z,8.40
2022-12-15T10:23:12.194Z,7.93
2022-12-15T10:28:16.154Z,7.53
2022-12-15T10:33:24.351Z,8.38
2022-12-15T10:38:34.420Z,7.90
2022-12-15T10:43:41.107Z,9.55
2022-12-15T10:48:38.686Z,9.52
2022-12-15T10:53:50.504Z,9.98
2022-12-15T10:58:52.526Z,9.02
2022-12-15T11:03:54.415Z,9.63
2022-12-15T11:08:54.735Z,9.48
2022-12-15T11:14:07.419Z,9.45
2022-12-15T11:19:22.696Z,9.73
2022-12-15T11:24:35.311Z,9.45
2022-12-15T11:29:43.453Z,10.15
2022-12-15T11:34:46.926Z,10.15
2022-12-15T11:39:56.745Z,9.52
2022-12-15T11:45:04.714Z,9.15
2022-12-15T11:50:40.299Z,10.63
2022-12-15T11:56:09.981Z,10.13
2022-12-15T12:01:25.407Z,11.32
2022-12-15T12:06:44.284Z,10.68
2022-12-15T12:12:11.899Z,10.05
2022-12-15T12:17:23.624Z,9.73
2022-12-15T12:22:40.036Z,8.30
2022-12-15T12:28:02.074Z,7.32
2022-12-15T12:33:40.743Z,8.57
2022-12-15T12:38:50.465Z,11.30
2022-12-15T12:43:53.766Z,17.40
2022-12-15T12:49:03.747Z,11.45
2022-12-15T12:54:02.015Z,13.60
2022-12-15T12:58:59.520Z,10.68
2022-12-15T13:04:07.681Z,9.70
2022-12-15T13:09:19.859Z,10.38
2022-12-15T13:14:46.700Z,10.55
2022-12-15T13:20:00.842Z,10.27
2022-12-15T13:24:58.710Z,8.95
2022-12-15T13:30:08.211Z,7.95
2022-12-15T13:35:14.678Z,9.23
2022-12-15T13:40:34.061Z,9.02
2022-12-15T13:45:36.052Z,9.85
2022-12-15T13:50:51.461Z,9.25
2022-12-15T13:56:11.565Z,10.88
2022-12-15T14:01:33.340Z,10.23
2022-12-15T14:06:41.000Z,9.93
2022-12-15T14:11:56.806Z,9.90
2022-12-15T14:16:58.666Z,10.05
2022-12-15T14:21:57.938Z,9.75
2022-12-15T14:26:56.821Z,10.43
2022-12-15T14:31:58.548Z,11.73
2022-12-15T14:36:58.916Z,15.20
2022-12-15T14:41:58.200Z,14.70
2022-12-15T14:46:56.466Z,12.95
2022-12-15T14:52:02.115Z,10.93
2022-12-15T14:57:01.616Z,11.38
2022-12-15T15:02:23.295Z,10.32
2022-12-15T15:07:20.702Z,10.77
2022-12-15T15:12:20.654Z,11.48
2022-12-15T15:17:27.782Z,12.38
2022-12-15T15:22:34.355Z,14.10
2022-12-15T15:27:40.108Z,14.50
2022-12-15T15:32:54.049Z,14.25
2022-12-15T15:37:53.215Z,13.57
2022-12-15T15:42:50.634Z,12.40
2022-12-15T15:47:51.525Z,12.63
2022-12-15T15:52:53.942Z,12.73
2022-12-15T15:57:51.209Z,20.05
2022-12-15T16:02:48.921Z,18.50
2022-12-15T16:07:47.036Z,19.23
2022-12-15T16:12:57.010Z,14.52
2022-12-15T16:17:54.834Z,13.52
2022-12-15T16:22:57.852Z,13.68
2022-12-15T16:27:55.303Z,40.35
2022-12-15T16:32:54.174Z,46.63
2022-12-15T16:37:53.112Z,20.50
2022-12-15T16:43:00.324Z,12.73
2022-12-15T16:47:59.126Z,13.85
2022-12-15T16:52:57.229Z,15.50
2022-12-15T16:58:06.390Z,11.65
2022-12-15T17:03:04.201Z,12.77
2022-12-15T17:08:05.578Z,15.43
2022-12-15T17:13:39.195Z,12.40
2022-12-15T17:18:39.505Z,13.02
2022-12-15T17:23:37.088Z,15.25
2022-12-15T17:28:38.447Z,13.35
2022-12-15T17:33:36.441Z,17.05
2022-12-15T17:38:34.080Z,18.90
2022-12-15T17:43:35.579Z,18.98
2022-12-15T17:48:33.880Z,17.23
2022-12-15T17:53:31.908Z,14.30
2022-12-15T17:58:29.435Z,14.40
2022-12-15T18:03:27.479Z,14.63
2022-12-15T18:08:27.245Z,14.68
2022-12-15T18:13:27.884Z,15.73
2022-12-15T18:18:26.745Z,14.57
2022-12-15T18:23:25.915Z,14.48
2022-12-15T18:28:30.119Z,15.18
2022-12-15T18:33:31.012Z,15.32
2022-12-15T18:38:29.529Z,16.15
2022-12-15T18:43:30.387Z,16.67
2022-12-15T18:48:30.590Z,17.25
2022-12-15T18:53:32.888Z,21.30
2022-12-15T18:58:33.625Z,18.13
2022-12-15T19:03:31.719Z,17.27
2022-12-15T19:08:37.032Z,15.88
2022-12-15T19:13:37.541Z,19.40
2022-12-15T19:18:53.502Z,17.65
2022-12-15T19:23:50.884Z,16.92
2022-12-15T19:28:48.974Z,17.77
2022-12-15T19:33:47.015Z,17.17
2022-12-15T19:38:47.255Z,18.33
2022-12-15T19:43:45.793Z,14.98
2022-12-15T19:48:43.883Z,15.88
2022-12-15T19:53:42.046Z,15.52
2022-12-15T19:58:40.849Z,15.88
2022-12-15T20:03:39.084Z,17.17
2022-12-15T20:08:40.829Z,16.57
2022-12-15T20:13:38.500Z,15.18
2022-12-15T20:18:36.435Z,13.98
2022-12-15T20:23:36.004Z,13.60
2022-12-15T20:28:34.884Z,13.35
2022-12-15T20:33:32.850Z,13.60
2022-12-15T20:38:33.654Z,14.68
2022-12-15T20:43:32.677Z,14.25
2022-12-15T20:48:30.690Z,15.30
2022-12-15T20:53:29.544Z,14.50
2022-12-15T20:58:32.816Z,14.90
2022-12-15T21:03:36.629Z,16.10
2022-12-15T21:08:36.597Z,13.90
2022-12-15T21:13:35.517Z,14.33
2022-12-15T21:23:51.103Z,16.10
2022-12-15T21:28:50.283Z,14.77
2022-12-15T21:33:48.415Z,14.32
2022-12-15T21:38:49.320Z,15.63
2022-12-15T21:43:46.964Z,13.70
2022-12-15T21:49:03.504Z,15.80
2022-12-15T21:54:01.288Z,14.90
2022-12-15T21:58:59.246Z,14.27
2022-12-15T22:03:58.826Z,14.18
2022-12-15T22:09:01.119Z,14.43
2022-12-15T22:14:02.356Z,15.07
2022-12-15T22:19:00.301Z,14.18
2022-12-15T22:23:57.927Z,15.23
2022-12-15T22:28:56.704Z,14.55
2022-12-15T22:33:57.491Z,14.07
2022-12-15T22:38:56.052Z,14.45
2022-12-15T22:43:56.818Z,14.93
2022-12-15T22:48:54.949Z,14.30
2022-12-15T22:53:57.397Z,13.40
2022-12-15T22:59:01.903Z,14.30
2022-12-15T23:03:59.142Z,13.65
2022-12-15T23:08:56.692Z,13.57
2022-12-15T23:13:53.922Z,15.77
2022-12-15T23:18:54.823Z,15.10
2022-12-15T23:23:53.250Z,16.13
2022-12-15T23:28:51.018Z,15.30
2022-12-15T23:33:48.431Z,15.98
2022-12-15T23:38:45.672Z,17.02
2022-12-15T23:43:43.192Z,13.77
2022-12-15T23:48:43.281Z,14.43
2022-12-15T23:53:44.572Z,15.30
2022-12-15T23:58:45.107Z,13.93
